WHISKEYTOWN DAM (USBR) (WHI)

Elevation: 1210' · SACRAMENTO R basin · Operator: US Bureau of Reclamation

Provisional data, subject to change.
Query executed Thursday at 14:06:34   clock

Select a sensor type for a plot of data.
Note: Reservoir Flows are daily averages.

Earlier

Date RES ELE    STORAGE    RES CHG    OUTFLOW    INFLOW    EVAP    RIV REL    PPT INC    RAIN    SPILL    DIS PWR   
 FEET   AF   AF   CFS   CFS   CFS   CFS   INCHES   INCHES   CFS   CFS  
02/04/2015 1198.04 204327 -118 195 137 1 181 0.00 32.85 0 14
02/05/2015 1198.22 204857 530 197 464 0 181 0.00 32.85 0 16
02/06/2015 1200.46 211502 6645 1080 4430 0 181 2.87 35.72 0 899
02/07/2015 1202.55 217807 6305 1710 4889 0 181 6.20 41.92 0 1529
02/08/2015 1203.56 220890 3083 1975 3536 7 181 0.86 42.78 0 1794
02/09/2015 1206.27 229276 8386 1124 5352 0 181 2.05 44.83 0 943
02/10/2015 1206.55 230153 877 2196 2638 0 181 0.12 44.95 0 2015
02/11/2015 1206.31 229402 -751 2081 1705 3 181 0.00 44.95 0 1900
02/12/2015 1205.76 227685 -1717 2087 1223 2 181 0.00 44.95 0 1906
02/13/2015 1205.01 225354 -2331 2150 977 2 181 0.00 44.95 0 1969
02/14/2015 1204.98 225261 -93 886 842 3 181 0.00 44.95 0 705
02/15/2015 1204.81 224737 -524 976 716 4 181 0.00 44.95 0 795
02/16/2015 1203.88 221870 -2867 2079 640 6 181 0.00 44.95 0 1898
02/17/2015 1202.87 218780 -3090 2121 567 4 181 0.00 44.95 0 1940
02/18/2015 1202.54 217777 -1003 1006 502 2 181 0.00 44.95 0 825
02/19/2015 1201.66 215110 -2667 1856 514 3 181 0.00 44.95 0 1675
02/20/2015 1200.96 212999 -2111 1478 417 3 181 0.00 44.95 0 1297
02/21/2015 1200.21 210754 -2245 1523 394 3 181 0.03 44.98 0 1342
02/22/2015 1199.87 209739 -1015 876 372 8 181 0.00 44.98 0 695
02/23/2015 1199.55 208789 -950 800 326 5 181 0.00 44.98 0 619
02/24/2015 1199.31 208076 -713 704 350 5 181 0.00 44.98 0 523
02/25/2015 1199.01 207185 -891 741 299 7 181 0.00 44.98 0 560
02/26/2015 1198.84 206684 -501 532 284 5 181 0.00 44.98 0 351
02/27/2015 1198.82 206625 -59 293 266 3 181 0.00 44.98 0 112
02/28/2015 1198.90 206860 235 195 316 3 181 0.00 44.98 0 14
03/01/2015 1198.97 207067 207 195 302 3 181 0.00 44.98 0 14
03/02/2015 1199.03 207244 177 195 288 4 181 0.00 44.98 0 14
03/03/2015 1199.05 207304 60 195 226 1 181 0.01 44.99 0 14
03/04/2015 1199.05 207304 0 204 207 3 181 0.00 44.99 0 23
03/05/2015 -- -- -- -- -- -- -- -- -- -- --

Later | Latest

Warning! This data is preliminary and subject to revision.

Show WHI Map | Plot WHI Data | 1 Month WHI Data | Real-Time WHI Data | WHI Info